sensor_id;sensor_type;location;lat;lon;timestamp;pressure;altitude;pressure_sealevel;temperature;humidity
15670;BME280;18524;45.190;5.732;2022-12-18T00:06:13;100165.63;;;3.71;100.00
15670;BME280;18524;45.190;5.732;2022-12-18T00:11:05;100179.94;;;3.58;100.00
15670;BME280;18524;45.190;5.732;2022-12-18T00:16:02;100184.22;;;3.59;100.00
15670;BME280;18524;45.190;5.732;2022-12-18T00:20:52;100187.38;;;3.43;100.00
15670;BME280;18524;45.190;5.732;2022-12-18T00:25:43;100191.66;;;3.44;100.00
15670;BME280;18524;45.190;5.732;2022-12-18T00:30:33;100193.56;;;3.39;100.00
15670;BME280;18524;45.190;5.732;2022-12-18T00:35:23;100198.28;;;3.27;100.00
15670;BME280;18524;45.190;5.732;2022-12-18T00:40:14;100197.81;;;3.16;100.00
15670;BME280;18524;45.190;5.732;2022-12-18T00:45:04;100193.38;;;3.19;100.00
15670;BME280;18524;45.190;5.732;2022-12-18T00:49:55;100204.00;;;3.11;100.00
15670;BME280;18524;45.190;5.732;2022-12-18T00:54:45;100205.91;;;3.06;100.00
15670;BME280;18524;45.190;5.732;2022-12-18T00:59:36;100199.97;;;3.03;100.00
15670;BME280;18524;45.190;5.732;2022-12-18T01:04:26;100203.38;;;3.05;100.00
15670;BME280;18524;45.190;5.732;2022-12-18T01:09:17;100207.44;;;3.12;100.00
15670;BME280;18524;45.190;5.732;2022-12-18T01:14:07;100207.66;;;3.06;100.00
15670;BME280;18524;45.190;5.732;2022-12-18T01:18:58;100211.34;;;2.99;100.00
15670;BME280;18524;45.190;5.732;2022-12-18T01:23:53;100207.53;;;3.09;100.00
15670;BME280;18524;45.190;5.732;2022-12-18T01:28:43;100215.53;;;3.03;100.00
15670;BME280;18524;45.190;5.732;2022-12-18T01:33:34;100210.56;;;2.95;100.00
15670;BME280;18524;45.190;5.732;2022-12-18T01:38:24;100216.53;;;2.97;100.00
15670;BME280;18524;45.190;5.732;2022-12-18T01:43:15;100219.19;;;2.96;100.00
15670;BME280;18524;45.190;5.732;2022-12-18T01:48:06;100222.78;;;2.92;100.00
15670;BME280;18524;45.190;5.732;2022-12-18T01:53:14;100228.25;;;2.82;100.00
15670;BME280;18524;45.190;5.732;2022-12-18T01:58:04;100230.69;;;2.87;100.00
15670;BME280;18524;45.190;5.732;2022-12-18T02:02:55;100225.19;;;2.98;100.00
15670;BME280;18524;45.190;5.732;2022-12-18T02:12:56;100230.94;;;2.79;100.00
15670;BME280;18524;45.190;5.732;2022-12-18T02:17:58;100241.69;;;2.94;100.00
15670;BME280;18524;45.190;5.732;2022-12-18T02:22:54;100235.97;;;2.84;100.00
15670;BME280;18524;45.190;5.732;2022-12-18T02:27:50;100236.16;;;2.78;100.00
15670;BME280;18524;45.190;5.732;2022-12-18T02:32:47;100233.47;;;2.81;100.00
15670;BME280;18524;45.190;5.732;2022-12-18T02:37:39;100239.16;;;2.92;100.00
15670;BME280;18524;45.190;5.732;2022-12-18T02:42:30;100237.28;;;2.97;100.00
15670;BME280;18524;45.190;5.732;2022-12-18T02:47:24;100253.88;;;2.92;100.00
15670;BME280;18524;45.190;5.732;2022-12-18T02:52:31;100256.44;;;2.92;100.00
15670;BME280;18524;45.190;5.732;2022-12-18T02:57:42;100264.13;;;2.95;100.00
15670;BME280;18524;45.190;5.732;2022-12-18T03:03:06;100260.88;;;2.88;100.00
15670;BME280;18524;45.190;5.732;2022-12-18T03:08:06;100266.88;;;2.90;100.00
15670;BME280;18524;45.190;5.732;2022-12-18T03:13:06;100267.50;;;2.97;100.00
15670;BME280;18524;45.190;5.732;2022-12-18T03:18:16;100268.28;;;2.72;100.00
15670;BME280;18524;45.190;5.732;2022-12-18T03:23:12;100274.22;;;2.76;100.00
15670;BME280;18524;45.190;5.732;2022-12-18T03:28:06;100273.56;;;2.69;100.00
15670;BME280;18524;45.190;5.732;2022-12-18T03:33:04;100269.31;;;2.67;100.00
15670;BME280;18524;45.190;5.732;2022-12-18T03:37:56;100272.13;;;2.59;100.00
15670;BME280;18524;45.190;5.732;2022-12-18T03:42:52;100285.22;;;2.55;100.00
15670;BME280;18524;45.190;5.732;2022-12-18T03:47:59;100280.63;;;2.64;100.00
15670;BME280;18524;45.190;5.732;2022-12-18T03:53:02;100291.09;;;2.61;100.00
15670;BME280;18524;45.190;5.732;2022-12-18T03:57:57;100293.16;;;2.48;100.00
15670;BME280;18524;45.190;5.732;2022-12-18T04:02:51;100307.31;;;2.37;100.00
15670;BME280;18524;45.190;5.732;2022-12-18T04:07:43;100300.75;;;2.55;100.00
15670;BME280;18524;45.190;5.732;2022-12-18T04:12:34;100309.63;;;2.46;100.00
15670;BME280;18524;45.190;5.732;2022-12-18T04:17:24;100313.88;;;2.48;100.00
15670;BME280;18524;45.190;5.732;2022-12-18T04:22:15;100310.25;;;2.54;100.00
15670;BME280;18524;45.190;5.732;2022-12-18T04:27:05;100314.59;;;2.54;100.00
15670;BME280;18524;45.190;5.732;2022-12-18T04:31:56;100314.75;;;2.47;100.00
15670;BME280;18524;45.190;5.732;2022-12-18T04:36:46;100319.00;;;2.50;100.00
15670;BME280;18524;45.190;5.732;2022-12-18T04:41:37;100322.81;;;2.38;100.00
15670;BME280;18524;45.190;5.732;2022-12-18T04:46:27;100326.09;;;2.43;100.00
15670;BME280;18524;45.190;5.732;2022-12-18T04:51:17;100331.22;;;2.45;100.00
15670;BME280;18524;45.190;5.732;2022-12-18T04:56:11;100333.03;;;2.43;100.00
15670;BME280;18524;45.190;5.732;2022-12-18T05:01:01;100341.69;;;2.42;100.00
15670;BME280;18524;45.190;5.732;2022-12-18T05:05:52;100334.25;;;2.30;100.00
15670;BME280;18524;45.190;5.732;2022-12-18T05:10:42;100340.91;;;2.38;100.00
15670;BME280;18524;45.190;5.732;2022-12-18T05:15:33;100342.03;;;2.30;100.00
15670;BME280;18524;45.190;5.732;2022-12-18T05:20:25;100354.16;;;2.28;100.00
15670;BME280;18524;45.190;5.732;2022-12-18T05:25:16;100354.06;;;2.31;100.00
15670;BME280;18524;45.190;5.732;2022-12-18T05:30:07;100356.41;;;2.40;100.00
15670;BME280;18524;45.190;5.732;2022-12-18T05:34:58;100364.19;;;2.40;100.00
15670;BME280;18524;45.190;5.732;2022-12-18T05:39:48;100359.34;;;2.28;100.00
15670;BME280;18524;45.190;5.732;2022-12-18T05:44:39;100358.28;;;2.35;100.00
15670;BME280;18524;45.190;5.732;2022-12-18T05:49:29;100364.59;;;2.25;100.00
15670;BME280;18524;45.190;5.732;2022-12-18T05:54:19;100367.16;;;2.26;100.00
15670;BME280;18524;45.190;5.732;2022-12-18T05:59:10;100371.38;;;2.29;100.00
15670;BME280;18524;45.190;5.732;2022-12-18T06:04:00;100379.63;;;2.10;100.00
15670;BME280;18524;45.190;5.732;2022-12-18T06:08:51;100388.19;;;2.12;100.00
15670;BME280;18524;45.190;5.732;2022-12-18T06:13:41;100389.94;;;2.12;100.00
15670;BME280;18524;45.190;5.732;2022-12-18T06:18:32;100391.22;;;1.96;100.00
15670;BME280;18524;45.190;5.732;2022-12-18T06:23:23;100402.91;;;2.10;100.00
15670;BME280;18524;45.190;5.732;2022-12-18T06:28:13;100411.56;;;2.09;100.00
15670;BME280;18524;45.190;5.732;2022-12-18T06:33:04;100415.28;;;1.99;100.00
15670;BME280;18524;45.190;5.732;2022-12-18T06:37:54;100424.63;;;2.05;100.00
15670;BME280;18524;45.190;5.732;2022-12-18T06:42:44;100428.91;;;2.06;100.00
15670;BME280;18524;45.190;5.732;2022-12-18T06:47:35;100435.09;;;2.00;100.00
15670;BME280;18524;45.190;5.732;2022-12-18T06:52:25;100440.78;;;2.13;100.00
15670;BME280;18524;45.190;5.732;2022-12-18T06:57:17;100454.53;;;2.15;100.00
15670;BME280;18524;45.190;5.732;2022-12-18T07:02:11;100461.94;;;2.30;100.00
15670;BME280;18524;45.190;5.732;2022-12-18T07:07:02;100467.88;;;2.34;100.00
15670;BME280;18524;45.190;5.732;2022-12-18T07:11:53;100479.38;;;2.22;100.00
15670;BME280;18524;45.190;5.732;2022-12-18T07:16:43;100492.34;;;2.20;100.00
15670;BME280;18524;45.190;5.732;2022-12-18T07:21:33;100483.69;;;2.22;100.00
15670;BME280;18524;45.190;5.732;2022-12-18T07:26:24;100489.75;;;2.20;100.00
15670;BME280;18524;45.190;5.732;2022-12-18T07:31:19;100494.69;;;2.31;100.00
15670;BME280;18524;45.190;5.732;2022-12-18T07:36:10;100497.44;;;2.25;100.00
15670;BME280;18524;45.190;5.732;2022-12-18T07:41:06;100494.59;;;2.00;100.00
15670;BME280;18524;45.190;5.732;2022-12-18T07:45:57;100499.19;;;2.25;100.00
15670;BME280;18524;45.190;5.732;2022-12-18T07:50:48;100501.94;;;2.17;100.00
15670;BME280;18524;45.190;5.732;2022-12-18T07:55:38;100511.50;;;2.13;100.00
15670;BME280;18524;45.190;5.732;2022-12-18T08:00:29;100513.38;;;2.08;100.00
15670;BME280;18524;45.190;5.732;2022-12-18T08:05:20;100517.56;;;2.12;100.00
15670;BME280;18524;45.190;5.732;2022-12-18T08:10:10;100508.59;;;2.27;100.00
15670;BME280;18524;45.190;5.732;2022-12-18T08:15:01;100502.84;;;2.50;100.00
15670;BME280;18524;45.190;5.732;2022-12-18T08:19:51;100496.59;;;2.90;100.00
15670;BME280;18524;45.190;5.732;2022-12-18T08:24:42;100500.38;;;3.09;100.00
15670;BME280;18524;45.190;5.732;2022-12-18T08:29:32;100511.06;;;2.98;100.00
15670;BME280;18524;45.190;5.732;2022-12-18T08:34:23;100503.88;;;3.08;100.00
15670;BME280;18524;45.190;5.732;2022-12-18T08:39:14;100500.22;;;3.15;100.00
15670;BME280;18524;45.190;5.732;2022-12-18T08:44:04;100497.06;;;3.35;100.00
15670;BME280;18524;45.190;5.732;2022-12-18T08:49:13;100506.09;;;3.51;100.00
15670;BME280;18524;45.190;5.732;2022-12-18T08:54:04;100500.88;;;3.51;100.00
15670;BME280;18524;45.190;5.732;2022-12-18T08:58:56;100498.09;;;3.57;100.00
15670;BME280;18524;45.190;5.732;2022-12-18T09:03:47;100489.84;;;3.74;99.23
15670;BME280;18524;45.190;5.732;2022-12-18T09:08:37;100486.34;;;3.75;98.68
15670;BME280;18524;45.190;5.732;2022-12-18T09:13:28;100489.00;;;3.73;99.00
15670;BME280;18524;45.190;5.732;2022-12-18T09:18:20;100493.72;;;3.87;98.37
15670;BME280;18524;45.190;5.732;2022-12-18T09:23:11;100493.84;;;3.84;98.30
15670;BME280;18524;45.190;5.732;2022-12-18T09:28:04;100487.94;;;3.79;99.30
15670;BME280;18524;45.190;5.732;2022-12-18T09:32:55;100484.84;;;3.94;98.91
15670;BME280;18524;45.190;5.732;2022-12-18T09:37:46;100482.13;;;4.25;98.13
15670;BME280;18524;45.190;5.732;2022-12-18T09:42:37;100480.78;;;4.14;97.13
15670;BME280;18524;45.190;5.732;2022-12-18T09:47:29;100478.94;;;4.17;97.83
15670;BME280;18524;45.190;5.732;2022-12-18T09:52:27;100473.34;;;4.54;95.66
15670;BME280;18524;45.190;5.732;2022-12-18T09:57:22;100486.88;;;4.89;94.53
15670;BME280;18524;45.190;5.732;2022-12-18T10:02:19;100503.75;;;5.00;91.87
15670;BME280;18524;45.190;5.732;2022-12-18T10:07:33;100495.94;;;5.25;89.94
15670;BME280;18524;45.190;5.732;2022-12-18T10:23:04;100485.88;;;5.83;87.33
15670;BME280;18524;45.190;5.732;2022-12-18T10:28:07;100483.72;;;5.94;85.33
15670;BME280;18524;45.190;5.732;2022-12-18T10:33:03;100484.81;;;6.11;86.11
15670;BME280;18524;45.190;5.732;2022-12-18T10:38:06;100470.16;;;6.50;84.25
15670;BME280;18524;45.190;5.732;2022-12-18T10:43:27;100458.47;;;6.79;82.10
15670;BME280;18524;45.190;5.732;2022-12-18T10:48:19;100464.41;;;6.63;80.66
15670;BME280;18524;45.190;5.732;2022-12-18T10:53:18;100459.31;;;6.80;81.96
15670;BME280;18524;45.190;5.732;2022-12-18T11:03:38;100445.75;;;7.30;78.86
15670;BME280;18524;45.190;5.732;2022-12-18T11:08:29;100451.03;;;7.28;79.08
15670;BME280;18524;45.190;5.732;2022-12-18T11:13:22;100439.56;;;7.51;77.86
15670;BME280;18524;45.190;5.732;2022-12-18T11:23:13;100426.38;;;7.71;76.30
15670;BME280;18524;45.190;5.732;2022-12-18T11:28:33;100416.59;;;7.94;74.66
15670;BME280;18524;45.190;5.732;2022-12-18T11:33:25;100402.78;;;8.26;72.57
15670;BME280;18524;45.190;5.732;2022-12-18T11:38:22;100403.47;;;8.30;72.23
15670;BME280;18524;45.190;5.732;2022-12-18T11:43:26;100383.09;;;8.19;71.77
15670;BME280;18524;45.190;5.732;2022-12-18T11:48:27;100376.72;;;8.25;71.65
15670;BME280;18524;45.190;5.732;2022-12-18T11:53:20;100380.31;;;8.05;71.14
15670;BME280;18524;45.190;5.732;2022-12-18T12:03:27;100361.31;;;8.53;70.23
15670;BME280;18524;45.190;5.732;2022-12-18T12:19:08;100351.56;;;8.39;71.91
15670;BME280;18524;45.190;5.732;2022-12-18T12:29:31;100338.69;;;8.02;73.81
15670;BME280;18524;45.190;5.732;2022-12-18T12:34:38;100329.72;;;7.90;74.93
15670;BME280;18524;45.190;5.732;2022-12-18T12:39:39;100328.16;;;8.03;76.50
15670;BME280;18524;45.190;5.732;2022-12-18T12:44:39;100325.69;;;8.00;77.07
15670;BME280;18524;45.190;5.732;2022-12-18T12:49:32;100318.47;;;7.71;76.52
15670;BME280;18524;45.190;5.732;2022-12-18T12:54:25;100309.13;;;7.67;75.93
15670;BME280;18524;45.190;5.732;2022-12-18T12:59:21;100307.81;;;7.58;76.40
15670;BME280;18524;45.190;5.732;2022-12-18T13:15:24;100299.53;;;7.50;76.96
15670;BME280;18524;45.190;5.732;2022-12-18T13:20:15;100299.75;;;7.63;76.66
15670;BME280;18524;45.190;5.732;2022-12-18T13:25:33;100283.16;;;7.46;77.23
15670;BME280;18524;45.190;5.732;2022-12-18T13:46:26;100265.91;;;7.44;77.71
15670;BME280;18524;45.190;5.732;2022-12-18T13:51:19;100269.13;;;7.49;78.17
15670;BME280;18524;45.190;5.732;2022-12-18T13:56:23;100267.09;;;7.37;79.87
15670;BME280;18524;45.190;5.732;2022-12-18T14:01:23;100263.81;;;7.50;78.78
15670;BME280;18524;45.190;5.732;2022-12-18T14:06:14;100261.72;;;7.40;79.94
15670;BME280;18524;45.190;5.732;2022-12-18T14:11:05;100262.50;;;7.59;79.81
15670;BME280;18524;45.190;5.732;2022-12-18T14:15:57;100270.72;;;7.51;80.38
15670;BME280;18524;45.190;5.732;2022-12-18T14:20:52;100279.63;;;7.47;80.01
15670;BME280;18524;45.190;5.732;2022-12-18T14:25:46;100280.16;;;7.54;78.71
15670;BME280;18524;45.190;5.732;2022-12-18T14:30:41;100277.19;;;7.44;78.60
15670;BME280;18524;45.190;5.732;2022-12-18T14:35:35;100274.72;;;7.59;77.32
15670;BME280;18524;45.190;5.732;2022-12-18T14:40:25;100272.31;;;7.37;79.22
15670;BME280;18524;45.190;5.732;2022-12-18T14:45:39;100285.50;;;7.34;79.87
15670;BME280;18524;45.190;5.732;2022-12-18T14:50:31;100265.94;;;7.42;80.87
15670;BME280;18524;45.190;5.732;2022-12-18T14:55:21;100273.31;;;7.34;82.08
15670;BME280;18524;45.190;5.732;2022-12-18T15:00:17;100266.47;;;7.32;82.41
15670;BME280;18524;45.190;5.732;2022-12-18T15:05:24;100274.38;;;7.30;82.81
15670;BME280;18524;45.190;5.732;2022-12-18T15:10:34;100285.44;;;7.18;83.80
15670;BME280;18524;45.190;5.732;2022-12-18T15:20:24;100284.81;;;7.13;85.29
15670;BME280;18524;45.190;5.732;2022-12-18T15:30:20;100283.81;;;7.15;84.17
15670;BME280;18524;45.190;5.732;2022-12-18T15:35:16;100283.56;;;6.84;85.86
15670;BME280;18524;45.190;5.732;2022-12-18T15:40:18;100291.97;;;6.72;86.92
15670;BME280;18524;45.190;5.732;2022-12-18T15:45:12;100291.25;;;6.87;86.35
15670;BME280;18524;45.190;5.732;2022-12-18T15:50:04;100282.88;;;6.80;86.79
15670;BME280;18524;45.190;5.732;2022-12-18T15:54:54;100293.66;;;6.73;86.61
15670;BME280;18524;45.190;5.732;2022-12-18T16:00:03;100289.16;;;6.76;86.46
15670;BME280;18524;45.190;5.732;2022-12-18T16:04:54;100295.75;;;6.65;87.28
15670;BME280;18524;45.190;5.732;2022-12-18T16:09:47;100286.69;;;6.73;86.79
15670;BME280;18524;45.190;5.732;2022-12-18T16:14:38;100286.88;;;6.69;85.95
15670;BME280;18524;45.190;5.732;2022-12-18T16:19:29;100281.38;;;6.56;88.04
15670;BME280;18524;45.190;5.732;2022-12-18T16:24:28;100291.25;;;6.49;88.60
15670;BME280;18524;45.190;5.732;2022-12-18T16:29:23;100307.22;;;6.42;88.73
15670;BME280;18524;45.190;5.732;2022-12-18T16:34:22;100311.81;;;6.37;88.76
15670;BME280;18524;45.190;5.732;2022-12-18T16:39:14;100311.47;;;6.44;88.90
15670;BME280;18524;45.190;5.732;2022-12-18T16:44:04;100302.44;;;6.51;89.78
15670;BME280;18524;45.190;5.732;2022-12-18T16:48:57;100295.63;;;6.49;90.10
15670;BME280;18524;45.190;5.732;2022-12-18T16:53:48;100312.94;;;6.50;90.69
15670;BME280;18524;45.190;5.732;2022-12-18T16:58:38;100314.56;;;6.34;91.61
15670;BME280;18524;45.190;5.732;2022-12-18T17:03:29;100319.69;;;6.35;90.60
15670;BME280;18524;45.190;5.732;2022-12-18T17:08:19;100322.03;;;6.41;91.05
15670;BME280;18524;45.190;5.732;2022-12-18T17:13:10;100324.13;;;6.13;92.35
15670;BME280;18524;45.190;5.732;2022-12-18T17:18:01;100327.56;;;5.93;93.34
15670;BME280;18524;45.190;5.732;2022-12-18T17:22:51;100320.84;;;5.87;95.01
15670;BME280;18524;45.190;5.732;2022-12-18T17:27:42;100324.06;;;5.94;95.30
15670;BME280;18524;45.190;5.732;2022-12-18T17:32:32;100322.59;;;5.67;97.10
15670;BME280;18524;45.190;5.732;2022-12-18T17:37:23;100342.25;;;5.74;97.71
15670;BME280;18524;45.190;5.732;2022-12-18T17:42:14;100343.03;;;5.98;95.58
15670;BME280;18524;45.190;5.732;2022-12-18T17:47:05;100342.19;;;5.97;95.00
15670;BME280;18524;45.190;5.732;2022-12-18T17:51:55;100346.72;;;5.92;95.75
15670;BME280;18524;45.190;5.732;2022-12-18T17:56:45;100353.06;;;6.07;95.47
15670;BME280;18524;45.190;5.732;2022-12-18T18:01:36;100352.66;;;6.16;94.30
15670;BME280;18524;45.190;5.732;2022-12-18T18:06:26;100353.91;;;6.07;93.39
15670;BME280;18524;45.190;5.732;2022-12-18T18:11:19;100367.06;;;5.82;95.27
15670;BME280;18524;45.190;5.732;2022-12-18T18:16:30;100363.31;;;5.89;94.36
15670;BME280;18524;45.190;5.732;2022-12-18T18:21:21;100361.19;;;5.77;94.47
15670;BME280;18524;45.190;5.732;2022-12-18T18:26:11;100363.84;;;5.76;96.01
15670;BME280;18524;45.190;5.732;2022-12-18T18:31:09;100373.03;;;5.64;95.90
15670;BME280;18524;45.190;5.732;2022-12-18T18:36:00;100380.44;;;5.73;96.17
15670;BME280;18524;45.190;5.732;2022-12-18T18:41:03;100377.53;;;5.81;95.97
15670;BME280;18524;45.190;5.732;2022-12-18T18:45:57;100381.88;;;5.60;96.06
15670;BME280;18524;45.190;5.732;2022-12-18T18:51:01;100387.22;;;5.77;96.09
15670;BME280;18524;45.190;5.732;2022-12-18T18:55:51;100374.34;;;5.74;96.43
15670;BME280;18524;45.190;5.732;2022-12-18T19:00:42;100396.91;;;5.74;96.28
15670;BME280;18524;45.190;5.732;2022-12-18T19:05:32;100397.44;;;5.82;94.95
15670;BME280;18524;45.190;5.732;2022-12-18T19:10:23;100392.44;;;5.77;95.33
15670;BME280;18524;45.190;5.732;2022-12-18T19:15:13;100397.53;;;5.58;96.04
15670;BME280;18524;45.190;5.732;2022-12-18T19:20:04;100410.13;;;5.69;96.85
15670;BME280;18524;45.190;5.732;2022-12-18T19:24:54;100394.63;;;5.66;94.72
15670;BME280;18524;45.190;5.732;2022-12-18T19:29:45;100388.25;;;5.73;96.04
15670;BME280;18524;45.190;5.732;2022-12-18T19:34:35;100386.22;;;5.59;96.70
15670;BME280;18524;45.190;5.732;2022-12-18T19:39:25;100374.06;;;5.60;96.30
15670;BME280;18524;45.190;5.732;2022-12-18T19:44:16;100371.47;;;5.60;97.26
15670;BME280;18524;45.190;5.732;2022-12-18T19:49:07;100377.38;;;5.63;95.64
15670;BME280;18524;45.190;5.732;2022-12-18T19:53:59;100376.22;;;5.71;95.80
15670;BME280;18524;45.190;5.732;2022-12-18T19:58:50;100384.56;;;5.57;96.67
15670;BME280;18524;45.190;5.732;2022-12-18T20:03:41;100385.72;;;5.50;97.93
15670;BME280;18524;45.190;5.732;2022-12-18T20:08:35;100384.28;;;5.64;96.98
15670;BME280;18524;45.190;5.732;2022-12-18T20:13:25;100380.50;;;5.72;95.35
15670;BME280;18524;45.190;5.732;2022-12-18T20:18:16;100383.25;;;5.69;96.01
15670;BME280;18524;45.190;5.732;2022-12-18T20:23:06;100376.09;;;5.74;95.81
15670;BME280;18524;45.190;5.732;2022-12-18T20:27:56;100370.41;;;5.64;95.93
15670;BME280;18524;45.190;5.732;2022-12-18T20:32:47;100368.47;;;5.69;95.49
15670;BME280;18524;45.190;5.732;2022-12-18T20:37:37;100369.38;;;5.68;95.05
15670;BME280;18524;45.190;5.732;2022-12-18T20:42:28;100358.72;;;5.52;94.83
15670;BME280;18524;45.190;5.732;2022-12-18T20:47:18;100340.31;;;5.57;95.93
15670;BME280;18524;45.190;5.732;2022-12-18T20:52:09;100346.56;;;5.53;95.49
15670;BME280;18524;45.190;5.732;2022-12-18T20:56:59;100349.03;;;5.56;93.70
15670;BME280;18524;45.190;5.732;2022-12-18T21:01:50;100334.78;;;5.44;94.13
15670;BME280;18524;45.190;5.732;2022-12-18T21:06:41;100329.00;;;5.38;94.84
15670;BME280;18524;45.190;5.732;2022-12-18T21:11:32;100343.53;;;5.21;95.97
15670;BME280;18524;45.190;5.732;2022-12-18T21:16:41;100330.00;;;5.12;97.65
15670;BME280;18524;45.190;5.732;2022-12-18T21:21:34;100318.41;;;5.20;97.96
15670;BME280;18524;45.190;5.732;2022-12-18T21:26:26;100313.56;;;5.11;97.57
15670;BME280;18524;45.190;5.732;2022-12-18T21:31:17;100319.47;;;5.15;96.21
15670;BME280;18524;45.190;5.732;2022-12-18T21:36:08;100298.94;;;5.09;96.92
15670;BME280;18524;45.190;5.732;2022-12-18T21:40:58;100296.28;;;5.10;97.66
15670;BME280;18524;45.190;5.732;2022-12-18T21:45:49;100300.94;;;5.02;96.74
15670;BME280;18524;45.190;5.732;2022-12-18T21:50:39;100314.66;;;5.06;98.18
15670;BME280;18524;45.190;5.732;2022-12-18T21:55:30;100326.22;;;5.20;97.35
15670;BME280;18524;45.190;5.732;2022-12-18T22:00:20;100340.34;;;5.13;98.02
15670;BME280;18524;45.190;5.732;2022-12-18T22:05:10;100336.53;;;5.00;97.93
15670;BME280;18524;45.190;5.732;2022-12-18T22:10:01;100321.47;;;5.08;97.90
15670;BME280;18524;45.190;5.732;2022-12-18T22:14:52;100330.97;;;5.09;97.66
15670;BME280;18524;45.190;5.732;2022-12-18T22:19:42;100324.75;;;5.13;96.51
15670;BME280;18524;45.190;5.732;2022-12-18T22:24:32;100338.66;;;5.12;95.97
15670;BME280;18524;45.190;5.732;2022-12-18T22:29:23;100343.66;;;5.17;96.27
15670;BME280;18524;45.190;5.732;2022-12-18T22:34:33;100323.28;;;5.06;97.16
15670;BME280;18524;45.190;5.732;2022-12-18T22:39:25;100341.50;;;5.06;97.02
15670;BME280;18524;45.190;5.732;2022-12-18T22:44:16;100336.66;;;4.97;96.91
15670;BME280;18524;45.190;5.732;2022-12-18T22:49:11;100329.66;;;4.99;97.62
15670;BME280;18524;45.190;5.732;2022-12-18T22:54:02;100347.72;;;5.02;96.49
15670;BME280;18524;45.190;5.732;2022-12-18T22:58:53;100343.59;;;4.96;97.77
15670;BME280;18524;45.190;5.732;2022-12-18T23:03:43;100339.44;;;4.92;98.20
15670;BME280;18524;45.190;5.732;2022-12-18T23:08:34;100334.72;;;5.02;97.30
15670;BME280;18524;45.190;5.732;2022-12-18T23:13:25;100323.28;;;5.06;96.74
15670;BME280;18524;45.190;5.732;2022-12-18T23:18:16;100337.56;;;4.96;97.45
15670;BME280;18524;45.190;5.732;2022-12-18T23:23:07;100334.97;;;4.96;98.16
15670;BME280;18524;45.190;5.732;2022-12-18T23:27:57;100333.16;;;4.98;98.07
15670;BME280;18524;45.190;5.732;2022-12-18T23:32:48;100340.72;;;5.04;97.13
15670;BME280;18524;45.190;5.732;2022-12-18T23:37:38;100334.91;;;5.19;96.22
15670;BME280;18524;45.190;5.732;2022-12-18T23:42:29;100333.16;;;5.20;96.41
15670;BME280;18524;45.190;5.732;2022-12-18T23:47:19;100338.13;;;5.26;94.04
15670;BME280;18524;45.190;5.732;2022-12-18T23:52:10;100330.59;;;5.18;94.57
15670;BME280;18524;45.190;5.732;2022-12-18T23:57:00;100338.97;;;5.05;94.91
